createdAt,value
2018-04-19T17:10:16.956Z,24.32
2018-04-19T17:11:16.922Z,24.38
2018-04-19T17:13:11.361Z,24.29
2018-04-19T17:14:11.311Z,24.26
2018-04-19T17:16:05.704Z,24.14
2018-04-19T17:17:05.717Z,24.18
2018-04-19T17:19:00.140Z,24.18
2018-04-19T17:20:00.271Z,24.10
2018-04-19T17:21:54.498Z,24.13
2018-04-19T17:22:54.477Z,24.16
2018-04-19T17:24:48.967Z,24.16
2018-04-19T17:25:48.867Z,24.13
2018-04-19T17:27:43.559Z,23.99
2018-04-19T17:28:43.461Z,23.92
2018-04-19T17:30:37.905Z,23.76
2018-04-19T17:31:37.847Z,23.73
2018-04-19T17:33:32.249Z,23.73
2018-04-19T17:34:32.344Z,23.65
2018-04-19T17:36:26.729Z,23.44
2018-04-19T17:37:26.656Z,23.46
2018-04-19T17:39:21.027Z,23.37
2018-04-19T17:40:21.051Z,23.37
2018-04-19T17:41:21.035Z,23.31
2018-04-19T17:42:21.041Z,23.27
2018-04-19T17:43:21.046Z,23.32
2018-04-19T17:44:21.144Z,23.32
2018-04-19T17:45:21.056Z,23.24
2018-04-19T17:46:21.058Z,23.21
2018-04-19T17:47:21.065Z,23.23
2018-04-19T17:48:21.074Z,23.12
2018-04-19T17:49:21.085Z,23.20
2018-04-19T17:50:21.077Z,23.13
2018-04-19T17:51:21.087Z,23.06
2018-04-19T17:52:22.006Z,23.06
2018-04-19T17:53:21.188Z,23.03
2018-04-19T17:54:21.100Z,23.00
2018-04-19T17:55:21.104Z,22.99
2018-04-19T17:56:21.110Z,23.02
2018-04-19T17:57:21.116Z,22.94
2018-04-19T17:58:21.120Z,22.99
2018-04-19T17:59:21.129Z,23.00
2018-04-19T18:00:21.129Z,22.99
2018-04-19T18:01:21.136Z,22.90
2018-04-19T18:02:21.154Z,22.98
2018-04-19T18:03:21.145Z,22.96
2018-04-19T18:04:21.153Z,22.90
2018-04-19T18:05:21.158Z,22.93
2018-04-19T18:06:21.161Z,22.85
2018-04-19T18:07:21.168Z,22.91
2018-04-19T18:08:21.170Z,22.81
2018-04-19T18:09:21.176Z,22.84
2018-04-19T18:10:21.180Z,22.87
2018-04-19T18:11:21.184Z,22.73
2018-04-19T18:12:21.192Z,22.76
2018-04-19T18:13:21.195Z,22.91
2018-04-19T18:14:21.318Z,22.76
2018-04-19T18:15:21.321Z,22.78
2018-04-19T18:16:21.211Z,22.72
2018-04-19T18:17:21.216Z,22.73
2018-04-19T18:18:21.223Z,22.65
2018-04-19T18:19:21.241Z,22.72
2018-04-19T18:20:21.240Z,22.66
2018-04-19T18:21:21.258Z,22.55
2018-04-19T18:22:21.240Z,22.62
2018-04-19T18:23:21.244Z,22.59
2018-04-19T18:24:21.250Z,22.55
2018-04-19T18:25:21.257Z,22.53
2018-04-19T18:26:21.264Z,22.57
2018-04-19T18:27:21.269Z,22.47
2018-04-19T18:28:21.322Z,22.44
2018-04-19T18:29:21.276Z,22.43
2018-04-19T18:30:21.301Z,22.36
2018-04-19T18:31:21.358Z,22.30
2018-04-19T18:32:21.298Z,22.36
2018-04-19T18:33:21.316Z,22.30
2018-04-19T18:34:21.299Z,22.30
2018-04-19T18:35:21.305Z,22.20
2018-04-19T18:36:21.309Z,22.23
2018-04-19T18:37:21.315Z,22.15
2018-04-19T18:38:21.320Z,22.14
2018-04-19T18:39:21.324Z,22.08
2018-04-19T18:40:21.329Z,21.99
2018-04-19T18:41:21.336Z,22.04
2018-04-19T18:42:21.338Z,21.96
2018-04-19T18:43:21.344Z,21.85
2018-04-19T18:44:21.356Z,21.82
2018-04-19T18:45:21.358Z,21.70
2018-04-19T18:46:21.357Z,21.75
2018-04-19T18:47:21.362Z,21.75
2018-04-19T18:48:21.371Z,21.70
2018-04-19T18:49:21.374Z,21.64
2018-04-19T18:50:21.378Z,21.60
2018-04-19T18:51:21.388Z,21.55
2018-04-19T18:52:21.393Z,21.57
2018-04-19T18:53:21.402Z,21.46
2018-04-19T18:54:21.395Z,21.51
2018-04-19T18:55:21.399Z,21.46
2018-04-19T18:56:21.407Z,21.35
2018-04-19T18:57:21.427Z,21.36
2018-04-19T18:58:21.420Z,21.30
2018-04-19T18:59:21.416Z,21.32
2018-04-19T19:00:21.423Z,21.25
2018-04-19T19:01:21.432Z,21.18
2018-04-19T19:02:21.446Z,21.15
2018-04-19T19:03:21.436Z,21.02
2018-04-19T19:04:21.440Z,20.92
2018-04-19T19:05:21.442Z,21.03
2018-04-19T19:06:21.450Z,21.02
2018-04-19T19:07:21.452Z,20.90
2018-04-19T19:08:21.455Z,20.77
2018-04-19T19:09:21.460Z,20.75
2018-04-19T19:10:21.463Z,20.62
2018-04-19T19:11:21.480Z,20.69
2018-04-19T19:12:21.518Z,20.60
2018-04-19T19:13:21.499Z,20.65
2018-04-19T19:14:21.480Z,20.51
2018-04-19T19:15:21.487Z,20.48
2018-04-19T19:16:21.488Z,20.40
2018-04-19T19:17:21.494Z,20.41
2018-04-19T19:18:21.496Z,20.43
2018-04-19T19:19:21.500Z,20.29
2018-04-19T19:20:21.503Z,20.37
2018-04-19T19:21:21.509Z,20.37
2018-04-19T19:22:21.519Z,20.22
2018-04-19T19:23:21.522Z,20.19
2018-04-19T19:24:21.527Z,20.06
2018-04-19T19:25:21.528Z,20.10
2018-04-19T19:26:21.549Z,20.07
2018-04-19T19:27:21.556Z,20.06
2018-04-19T19:28:21.548Z,20.02
2018-04-19T19:29:21.542Z,20.02
2018-04-19T19:30:21.543Z,20.03
2018-04-19T19:31:21.550Z,19.94
2018-04-19T19:32:21.553Z,19.94
2018-04-19T19:33:21.562Z,19.82
2018-04-19T19:34:21.557Z,19.86
2018-04-19T19:35:21.562Z,19.81
2018-04-19T19:36:21.569Z,19.81
2018-04-19T19:37:21.578Z,19.79
2018-04-19T19:38:21.576Z,19.73
2018-04-19T19:39:21.579Z,19.69
2018-04-19T19:40:21.675Z,19.64
2018-04-19T19:41:21.583Z,19.56
2018-04-19T19:42:21.650Z,19.59
2018-04-19T19:43:21.590Z,19.51
2018-04-19T19:44:21.641Z,19.45
2018-04-19T19:45:21.597Z,19.41
2018-04-19T19:46:21.623Z,19.34
2018-04-19T19:47:21.603Z,19.33
2018-04-19T19:48:21.648Z,19.22
2018-04-19T19:49:21.654Z,19.27
2018-04-19T19:50:21.632Z,19.19
2018-04-19T19:51:21.622Z,19.18
2018-04-19T19:52:21.673Z,19.15
2018-04-19T19:53:21.636Z,19.07
2018-04-19T19:54:21.633Z,19.09
2018-04-19T19:55:21.655Z,19.07
2018-04-19T19:56:21.636Z,18.95
2018-04-19T19:57:21.648Z,19.07
2018-04-19T19:58:21.642Z,18.98
2018-04-19T19:59:21.643Z,19.00
2018-04-19T20:00:22.553Z,18.99
2018-04-19T20:01:21.651Z,18.95
2018-04-19T20:02:21.653Z,18.99
2018-04-19T20:03:21.699Z,18.98
2018-04-19T20:04:21.661Z,18.88
2018-04-19T20:05:21.767Z,18.89
2018-04-19T20:06:21.670Z,18.89
2018-04-19T20:07:21.669Z,18.80
2018-04-19T20:08:21.673Z,18.75
2018-04-19T20:09:21.694Z,18.78
2018-04-19T20:10:21.680Z,18.77
2018-04-19T20:11:21.684Z,18.74
2018-04-19T20:12:21.768Z,18.70
2018-04-19T20:13:21.691Z,18.68
2018-04-19T20:14:21.690Z,18.63
2018-04-19T20:15:21.694Z,18.62
2018-04-19T20:16:21.704Z,18.59
2018-04-19T20:17:21.706Z,18.55
2018-04-19T20:18:21.705Z,18.45
2018-04-19T20:19:21.706Z,18.40
2018-04-19T20:20:21.709Z,18.41
2018-04-19T20:21:21.711Z,18.33
2018-04-19T20:22:21.716Z,18.34
2018-04-19T20:23:21.737Z,18.26
2018-04-19T20:24:21.801Z,18.29
2018-04-19T20:25:21.722Z,18.25
2018-04-19T20:26:21.731Z,18.26
2018-04-19T20:27:21.728Z,18.28
2018-04-19T20:28:21.731Z,18.10
2018-04-19T20:29:21.746Z,18.22
2018-04-19T20:30:21.748Z,18.19
2018-04-19T20:31:21.742Z,18.13
2018-04-19T20:32:21.742Z,18.10
2018-04-19T20:33:21.754Z,18.05
2018-04-19T20:34:21.746Z,17.95
2018-04-19T20:35:21.754Z,18.00
2018-04-19T20:36:21.753Z,18.03
2018-04-19T20:37:21.756Z,18.01
2018-04-19T20:38:21.756Z,17.97
2018-04-19T20:39:21.807Z,17.90
2018-04-19T20:40:21.764Z,17.97
2018-04-19T20:41:21.769Z,17.87
2018-04-19T20:42:22.648Z,17.85
2018-04-19T20:43:21.771Z,17.86
2018-04-19T20:44:21.772Z,17.82
2018-04-19T20:45:21.778Z,17.78
2018-04-19T20:46:21.776Z,17.80
2018-04-19T20:47:21.779Z,17.74
2018-04-19T20:48:21.782Z,17.78
2018-04-19T20:49:21.784Z,17.82
2018-04-19T20:50:21.789Z,17.78
2018-04-19T20:51:21.790Z,17.71
2018-04-19T20:52:21.794Z,17.65
2018-04-19T20:53:21.816Z,17.74
2018-04-19T20:54:21.800Z,17.71
2018-04-19T20:55:21.801Z,17.68
2018-04-19T20:56:21.806Z,17.68
2018-04-19T20:57:21.807Z,17.57
2018-04-19T20:58:21.811Z,17.63
2018-04-19T20:59:21.808Z,17.57
2018-04-19T21:00:21.809Z,17.63
2018-04-19T21:01:21.812Z,17.52
2018-04-19T21:02:21.818Z,17.57
2018-04-19T21:03:21.816Z,17.45
2018-04-19T21:04:21.849Z,17.54
2018-04-19T21:05:21.821Z,17.59
2018-04-19T21:06:21.840Z,17.57
2018-04-19T21:07:21.828Z,17.54
2018-04-19T21:08:21.832Z,17.57
2018-04-19T21:09:21.832Z,17.48
2018-04-19T21:10:21.844Z,17.49
2018-04-19T21:11:21.846Z,17.45
2018-04-19T21:12:21.850Z,17.42
2018-04-19T21:13:21.844Z,17.38
2018-04-19T21:14:21.841Z,17.34
2018-04-19T21:15:21.843Z,17.42
2018-04-19T21:16:21.846Z,17.39
2018-04-19T21:17:21.849Z,17.42
2018-04-19T21:18:21.850Z,17.41
2018-04-19T21:19:21.853Z,17.36
2018-04-19T21:20:21.867Z,17.39
2018-04-19T21:21:21.861Z,17.42
2018-04-19T21:22:21.862Z,17.39
2018-04-19T21:23:21.871Z,17.38
2018-04-19T21:24:21.875Z,17.33
2018-04-19T21:25:21.870Z,17.34
2018-04-19T21:26:21.866Z,17.23
2018-04-19T21:27:21.868Z,17.23
2018-04-19T21:28:21.900Z,17.23
2018-04-19T21:29:21.875Z,17.29
2018-04-19T21:30:21.879Z,17.33
2018-04-19T21:31:21.878Z,17.27
2018-04-19T21:32:22.771Z,17.29
2018-04-19T21:33:21.898Z,17.34
2018-04-19T21:34:21.896Z,17.22
2018-04-19T21:35:21.886Z,17.16
2018-04-19T21:36:21.917Z,17.23
2018-04-19T21:37:21.906Z,17.19
2018-04-19T21:38:21.893Z,17.14
2018-04-19T21:39:21.894Z,17.02
2018-04-19T21:40:21.897Z,17.11
2018-04-19T21:41:21.902Z,17.14
2018-04-19T21:42:21.904Z,17.08
2018-04-19T21:43:21.901Z,17.01
2018-04-19T21:44:21.904Z,17.02
2018-04-19T21:45:21.909Z,16.97
2018-04-19T21:46:21.910Z,16.97
2018-04-19T21:47:21.910Z,16.94
2018-04-19T21:48:21.941Z,16.86
2018-04-19T21:49:21.929Z,16.87
2018-04-19T21:50:21.916Z,16.83
2018-04-19T21:51:21.943Z,16.78
2018-04-19T21:52:21.921Z,16.83
2018-04-19T21:53:21.933Z,16.83
2018-04-19T21:54:21.925Z,16.78
2018-04-19T21:55:21.934Z,16.74
2018-04-19T21:56:21.932Z,16.68
2018-04-19T21:57:21.930Z,16.75
2018-04-19T21:58:21.929Z,16.71
2018-04-19T21:59:21.933Z,16.69
2018-04-19T22:00:21.935Z,16.66
2018-04-19T22:01:21.935Z,16.68
2018-04-19T22:02:21.938Z,16.54
2018-04-19T22:03:21.940Z,16.53
2018-04-19T22:04:21.942Z,16.54
2018-04-19T22:05:21.947Z,16.47
2018-04-19T22:06:21.948Z,16.51
2018-04-19T22:07:21.948Z,16.47
2018-04-19T22:08:22.020Z,16.46
2018-04-19T22:09:21.955Z,16.54
2018-04-19T22:10:21.950Z,16.49
2018-04-19T22:11:21.955Z,16.50
2018-04-19T22:12:21.965Z,16.41
2018-04-19T22:13:21.957Z,16.36
2018-04-19T22:14:21.959Z,16.29
2018-04-19T22:15:21.964Z,16.41
2018-04-19T22:16:21.973Z,16.38
2018-04-19T22:17:21.962Z,16.31
2018-04-19T22:18:21.963Z,16.31
2018-04-19T22:19:21.966Z,16.24
2018-04-19T22:20:21.965Z,16.23
2018-04-19T22:21:21.969Z,16.23
2018-04-19T22:22:21.970Z,16.21
2018-04-19T22:23:21.973Z,16.12
2018-04-19T22:24:21.978Z,16.13
2018-04-19T22:25:21.976Z,16.23
2018-04-19T22:26:21.974Z,16.15
2018-04-19T22:27:21.975Z,16.15
2018-04-19T22:28:21.978Z,16.16
2018-04-19T22:29:21.978Z,16.15
2018-04-19T22:30:21.985Z,16.13
2018-04-19T22:31:21.981Z,16.12
2018-04-19T22:32:21.983Z,16.05
2018-04-19T22:33:21.989Z,16.04
2018-04-19T22:34:21.987Z,16.08
2018-04-19T22:35:21.988Z,15.97
2018-04-19T22:36:21.989Z,16.01
2018-04-19T22:37:21.992Z,16.04
2018-04-19T22:38:21.991Z,16.04
2018-04-19T22:39:21.992Z,15.95
2018-04-19T22:40:21.994Z,16.00
2018-04-19T22:41:21.997Z,15.94
2018-04-19T22:42:21.997Z,15.94
2018-04-19T22:43:21.998Z,15.90
2018-04-19T22:44:21.999Z,15.95
2018-04-19T22:45:22.002Z,15.94
2018-04-19T22:46:22.005Z,15.83
2018-04-19T22:47:22.003Z,15.79
2018-04-19T22:48:22.004Z,15.88
2018-04-19T22:49:22.007Z,15.80
2018-04-19T22:50:22.006Z,15.88
2018-04-19T22:51:22.016Z,15.79
2018-04-19T22:52:22.009Z,15.73
2018-04-19T22:53:22.011Z,15.72
2018-04-19T22:54:22.024Z,15.72
2018-04-19T22:55:22.014Z,15.73
2018-04-19T22:56:22.019Z,15.79
2018-04-19T22:57:22.014Z,15.76
2018-04-19T22:58:22.016Z,15.68
2018-04-19T22:59:22.022Z,15.64
2018-04-19T23:00:22.021Z,15.58
2018-04-19T23:01:22.020Z,15.62
2018-04-19T23:02:22.020Z,15.55
2018-04-19T23:03:22.024Z,15.65
2018-04-19T23:04:22.058Z,15.52
2018-04-19T23:05:22.024Z,15.62
2018-04-19T23:06:22.025Z,15.51
2018-04-19T23:07:22.031Z,15.51
2018-04-19T23:08:22.029Z,15.49
2018-04-19T23:09:22.029Z,15.52
2018-04-19T23:10:22.028Z,15.51
2018-04-19T23:11:22.031Z,15.43
2018-04-19T23:12:22.031Z,15.46
2018-04-19T23:13:22.032Z,15.43
2018-04-19T23:14:22.042Z,15.40
2018-04-19T23:15:22.030Z,15.39
2018-04-19T23:16:22.035Z,15.39
2018-04-19T23:17:22.034Z,15.37
2018-04-19T23:18:22.039Z,15.33
2018-04-19T23:19:22.036Z,15.31
2018-04-19T23:20:22.038Z,15.29
2018-04-19T23:21:22.047Z,15.35
2018-04-19T23:22:22.038Z,15.22
2018-04-19T23:23:22.039Z,15.28
2018-04-19T23:24:22.040Z,15.28
2018-04-19T23:25:22.042Z,15.24
2018-04-19T23:26:22.042Z,15.29
2018-04-19T23:27:22.045Z,15.25
2018-04-19T23:28:22.044Z,15.37
2018-04-19T23:29:22.046Z,15.24
2018-04-19T23:30:22.046Z,15.31
2018-04-19T23:31:22.045Z,15.29
2018-04-19T23:32:22.045Z,15.27
2018-04-19T23:33:22.047Z,15.17
2018-04-19T23:34:22.064Z,15.22
2018-04-19T23:35:22.052Z,15.19
2018-04-19T23:36:22.052Z,15.22
2018-04-19T23:37:22.049Z,15.17
2018-04-19T23:38:22.051Z,15.10
2018-04-19T23:39:23.538Z,15.14
2018-04-19T23:40:22.051Z,15.14
2018-04-19T23:41:22.192Z,15.11
2018-04-19T23:42:22.201Z,15.02
2018-04-19T23:43:22.057Z,15.02
2018-04-19T23:44:22.054Z,15.09
2018-04-19T23:45:22.058Z,15.03
2018-04-19T23:46:22.056Z,15.09
2018-04-19T23:47:22.057Z,15.00
2018-04-19T23:48:22.058Z,15.00
2018-04-19T23:49:22.060Z,15.02
2018-04-19T23:50:22.058Z,15.07
2018-04-19T23:51:22.058Z,14.94
2018-04-19T23:52:22.061Z,14.94
2018-04-19T23:53:22.059Z,14.99
2018-04-19T23:54:22.059Z,14.99
2018-04-19T23:55:22.062Z,14.99
2018-04-19T23:56:22.063Z,14.96
2018-04-19T23:57:22.069Z,14.96
2018-04-19T23:58:22.061Z,14.89
2018-04-19T23:59:22.063Z,14.92
